Погода Шакрана 2 недели

Мекка, Саудовская Аравия

22 февраля-06 марта
  • 22февраля
    Сегодня
    +15°
    +27°
    Ясно и безоблачно
    ВремяПогодаТемператураВлажностьДавлениеВетер, м/сВероятность осадков
    00:00Ясно и безоблачно+17°C34 %705 мм4.6 м/с2 %
    03:00Практически безоблачно+15°C35 %705 мм4.0 м/с2 %
    06:00Ясно и безоблачно+13°C39 %705 мм3.6 м/с2 %
    09:00Ясно и безоблачно+18°C29 %707 мм4.9 м/с2 %
    12:00Ясно и безоблачно+23°C21 %706 мм5.4 м/с2 %
    15:00Ясно и безоблачно+27°C20 %705 мм5.7 м/с2 %
    18:00Ясно и безоблачно+25°C23 %705 мм4.7 м/с2 %
    21:00Ясно и безоблачно+21°C30 %705 мм6.7 м/с2 %
  • 23февраля
    Пятница
    +16°
    +31°
    Ясно и безоблачно
    ВремяПогодаТемператураВлажностьДавлениеВетер, м/сВероятность осадков
    00:00Ясно и безоблачно+18°C35 %705 мм7.7 м/с2 %
    03:00Ясно и безоблачно+17°C39 %704 мм7.4 м/с2 %
    06:00Ясно и безоблачно+15°C42 %705 мм6.6 м/с2 %
    09:00Ясно и безоблачно+19°C32 %706 мм7.0 м/с2 %
    12:00Ясно и безоблачно+26°C20 %705 мм7.3 м/с2 %
    15:00Ясно и безоблачно+30°C16 %704 мм6.0 м/с2 %
    18:00Ясно и безоблачно+28°C20 %704 мм3.1 м/с2 %
    21:00Ясно и безоблачно+24°C23 %704 мм5.8 м/с2 %
  • 24февраля
    Суббота
    +14°
    +32°
    Ясно и безоблачно
    ВремяПогодаТемператураВлажностьДавлениеВетер, м/сВероятность осадков
    00:00Практически безоблачно+21°C25 %704 мм6.9 м/с2 %
    03:00Ясно и безоблачно+19°C29 %703 мм5.2 м/с2 %
    06:00Ясно и безоблачно+17°C32 %703 мм3.7 м/с2 %
    09:00Ясно и безоблачно+22°C24 %705 мм3.2 м/с2 %
    12:00Ясно и безоблачно+27°C16 %704 мм3.6 м/с2 %
    15:00Ясно и безоблачно+30°C14 %702 мм3.5 м/с2 %
    18:00Небольшая облачность+29°C17 %702 мм5.7 м/с2 %
    21:00Пасмурно, сплошная облачность+20°C26 %704 мм10.2 м/с2 %
  • 25февраля
    Воскресенье
    +10°
    +25°
    Ясно и безоблачно
    ВремяПогодаТемператураВлажностьДавлениеВетер, м/сВероятность осадков
    00:00Пасмурно, сплошная облачность+18°C35 %703 мм6.5 м/с5 %
    03:00Облачно с прояснениями+17°C39 %702 мм3.1 м/с9 %
    06:00Ясно и безоблачно+16°C41 %703 мм3.7 м/с4 %
    09:00Ясно и безоблачно+17°C43 %704 мм5.4 м/с2 %
    12:00Ясно и безоблачно+22°C36 %704 мм5.2 м/с2 %
    15:00Ясно и безоблачно+24°C31 %702 мм5.3 м/с2 %
    18:00Ясно и безоблачно+22°C37 %703 мм5.4 м/с2 %
    21:00Ясно и безоблачно+18°C50 %704 мм4.9 м/с2 %
  • 26февраля
    Понедельник
    +13°
    +24°
    Ясно и безоблачно
    ВремяПогодаТемператураВлажностьДавлениеВетер, м/сВероятность осадков
    00:00Ясно и безоблачно+15°C62 %703 мм4.0 м/с2 %
    03:00Ясно и безоблачно+13°C74 %702 мм3.3 м/с2 %
    06:00Ясно и безоблачно+11°C85 %702 мм2.7 м/с2 %
    09:00Ясно и безоблачно+15°C61 %704 мм2.6 м/с2 %
    12:00Ясно и безоблачно+20°C31 %703 мм2.4 м/с2 %
    15:00Ясно и безоблачно+23°C23 %702 мм1.9 м/с2 %
    18:00Ясно и безоблачно+22°C24 %702 мм2.5 м/с2 %
    21:00Ясно и безоблачно+19°C28 %702 мм4.3 м/с2 %
Мы используем cookies
Соглашаюсь